sensor_id;sensor_type;location;lat;lon;timestamp;P1;durP1;ratioP1;P2;durP2;ratioP2
30307;SDS011;17114;52.314;8.910;2023-03-17T00:01:10;6.65;;;3.70;;
30307;SDS011;17114;52.314;8.910;2023-03-17T00:03:38;6.55;;;3.47;;
30307;SDS011;17114;52.314;8.910;2023-03-17T00:06:40;4.90;;;3.15;;
30307;SDS011;17114;52.314;8.910;2023-03-17T00:09:00;6.15;;;3.60;;
30307;SDS011;17114;52.314;8.910;2023-03-17T00:11:27;4.93;;;3.28;;
30307;SDS011;17114;52.314;8.910;2023-03-17T00:13:54;11.73;;;3.92;;
30307;SDS011;17114;52.314;8.910;2023-03-17T00:16:22;5.28;;;3.65;;
30307;SDS011;17114;52.314;8.910;2023-03-17T00:18:53;6.35;;;3.75;;
30307;SDS011;17114;52.314;8.910;2023-03-17T00:21:24;5.63;;;3.50;;
30307;SDS011;17114;52.314;8.910;2023-03-17T00:23:53;5.30;;;3.38;;
30307;SDS011;17114;52.314;8.910;2023-03-17T00:26:25;6.47;;;3.60;;
30307;SDS011;17114;52.314;8.910;2023-03-17T00:28:53;8.88;;;3.90;;
30307;SDS011;17114;52.314;8.910;2023-03-17T00:31:22;7.90;;;3.42;;
30307;SDS011;17114;52.314;8.910;2023-03-17T00:33:50;6.18;;;3.72;;
30307;SDS011;17114;52.314;8.910;2023-03-17T00:36:23;5.55;;;3.10;;
30307;SDS011;17114;52.314;8.910;2023-03-17T00:38:56;7.30;;;3.50;;
30307;SDS011;17114;52.314;8.910;2023-03-17T00:41:24;5.32;;;3.35;;
30307;SDS011;17114;52.314;8.910;2023-03-17T00:43:52;6.97;;;3.67;;
30307;SDS011;17114;52.314;8.910;2023-03-17T00:46:21;5.53;;;3.80;;
30307;SDS011;17114;52.314;8.910;2023-03-17T00:48:53;7.22;;;3.65;;
30307;SDS011;17114;52.314;8.910;2023-03-17T00:51:20;5.75;;;3.35;;
30307;SDS011;17114;52.314;8.910;2023-03-17T00:53:49;6.53;;;3.70;;
30307;SDS011;17114;52.314;8.910;2023-03-17T00:56:17;5.65;;;3.60;;
30307;SDS011;17114;52.314;8.910;2023-03-17T00:58:46;7.40;;;3.75;;
30307;SDS011;17114;52.314;8.910;2023-03-17T01:01:14;6.22;;;4.00;;
30307;SDS011;17114;52.314;8.910;2023-03-17T01:03:41;8.00;;;3.30;;
30307;SDS011;17114;52.314;8.910;2023-03-17T01:06:10;6.47;;;3.45;;
30307;SDS011;17114;52.314;8.910;2023-03-17T01:08:39;5.10;;;3.10;;
30307;SDS011;17114;52.314;8.910;2023-03-17T01:11:13;6.70;;;3.60;;
30307;SDS011;17114;52.314;8.910;2023-03-17T01:13:44;5.68;;;3.92;;
30307;SDS011;17114;52.314;8.910;2023-03-17T01:16:12;7.03;;;3.72;;
30307;SDS011;17114;52.314;8.910;2023-03-17T01:18:41;8.60;;;3.80;;
30307;SDS011;17114;52.314;8.910;2023-03-17T01:21:09;6.40;;;3.95;;
30307;SDS011;17114;52.314;8.910;2023-03-17T01:23:36;5.53;;;3.08;;
30307;SDS011;17114;52.314;8.910;2023-03-17T01:26:03;4.95;;;3.63;;
30307;SDS011;17114;52.314;8.910;2023-03-17T01:28:32;5.50;;;3.63;;
30307;SDS011;17114;52.314;8.910;2023-03-17T01:30:59;5.18;;;3.22;;
30307;SDS011;17114;52.314;8.910;2023-03-17T01:33:28;5.38;;;3.42;;
30307;SDS011;17114;52.314;8.910;2023-03-17T01:35:55;7.70;;;3.67;;
30307;SDS011;17114;52.314;8.910;2023-03-17T01:38:22;8.15;;;3.90;;
30307;SDS011;17114;52.314;8.910;2023-03-17T01:40:50;8.07;;;3.53;;
30307;SDS011;17114;52.314;8.910;2023-03-17T01:43:23;6.75;;;4.00;;
30307;SDS011;17114;52.314;8.910;2023-03-17T01:54:44;8.67;;;3.90;;
30307;SDS011;17114;52.314;8.910;2023-03-17T01:57:53;7.88;;;4.10;;
30307;SDS011;17114;52.314;8.910;2023-03-17T02:00:20;7.45;;;4.40;;
30307;SDS011;17114;52.314;8.910;2023-03-17T02:02:50;7.65;;;3.97;;
30307;SDS011;17114;52.314;8.910;2023-03-17T02:05:23;7.80;;;4.13;;
30307;SDS011;17114;52.314;8.910;2023-03-17T02:07:52;7.50;;;4.18;;
30307;SDS011;17114;52.314;8.910;2023-03-17T02:10:21;5.82;;;3.60;;
30307;SDS011;17114;52.314;8.910;2023-03-17T02:12:51;6.63;;;4.50;;
30307;SDS011;17114;52.314;8.910;2023-03-17T02:15:21;6.32;;;4.05;;
30307;SDS011;17114;52.314;8.910;2023-03-17T02:17:49;7.95;;;4.25;;
30307;SDS011;17114;52.314;8.910;2023-03-17T02:22:43;9.18;;;4.38;;
30307;SDS011;17114;52.314;8.910;2023-03-17T02:25:14;8.13;;;4.20;;
30307;SDS011;17114;52.314;8.910;2023-03-17T02:27:43;8.27;;;3.97;;
30307;SDS011;17114;52.314;8.910;2023-03-17T02:30:14;7.85;;;4.43;;
30307;SDS011;17114;52.314;8.910;2023-03-17T02:32:47;10.38;;;4.07;;
30307;SDS011;17114;52.314;8.910;2023-03-17T02:35:14;7.18;;;4.45;;
30307;SDS011;17114;52.314;8.910;2023-03-17T02:37:41;6.93;;;4.45;;
30307;SDS011;17114;52.314;8.910;2023-03-17T02:40:09;6.88;;;4.00;;
30307;SDS011;17114;52.314;8.910;2023-03-17T02:42:36;10.40;;;4.75;;
30307;SDS011;17114;52.314;8.910;2023-03-17T02:45:07;7.10;;;3.95;;
30307;SDS011;17114;52.314;8.910;2023-03-17T02:47:36;8.20;;;4.63;;
30307;SDS011;17114;52.314;8.910;2023-03-17T02:50:04;5.95;;;3.90;;
30307;SDS011;17114;52.314;8.910;2023-03-17T02:52:32;7.07;;;4.40;;
30307;SDS011;17114;52.314;8.910;2023-03-17T02:54:59;8.63;;;4.13;;
30307;SDS011;17114;52.314;8.910;2023-03-17T02:57:26;9.18;;;5.07;;
30307;SDS011;17114;52.314;8.910;2023-03-17T02:59:53;8.75;;;4.38;;
30307;SDS011;17114;52.314;8.910;2023-03-17T03:02:20;6.18;;;4.20;;
30307;SDS011;17114;52.314;8.910;2023-03-17T03:04:47;8.15;;;4.13;;
30307;SDS011;17114;52.314;8.910;2023-03-17T03:07:15;7.63;;;4.20;;
30307;SDS011;17114;52.314;8.910;2023-03-17T03:09:42;8.77;;;4.55;;
30307;SDS011;17114;52.314;8.910;2023-03-17T03:12:09;7.30;;;4.32;;
30307;SDS011;17114;52.314;8.910;2023-03-17T03:14:37;7.32;;;4.57;;
30307;SDS011;17114;52.314;8.910;2023-03-17T03:17:04;8.65;;;4.85;;
30307;SDS011;17114;52.314;8.910;2023-03-17T03:19:31;7.70;;;4.43;;
30307;SDS011;17114;52.314;8.910;2023-03-17T03:21:58;7.82;;;4.80;;
30307;SDS011;17114;52.314;8.910;2023-03-17T03:24:25;8.27;;;4.55;;
30307;SDS011;17114;52.314;8.910;2023-03-17T03:26:53;6.05;;;4.15;;
30307;SDS011;17114;52.314;8.910;2023-03-17T03:29:20;7.35;;;4.72;;
30307;SDS011;17114;52.314;8.910;2023-03-17T03:31:47;7.30;;;4.50;;
30307;SDS011;17114;52.314;8.910;2023-03-17T03:34:14;7.80;;;4.65;;
30307;SDS011;17114;52.314;8.910;2023-03-17T03:36:41;8.93;;;4.38;;
30307;SDS011;17114;52.314;8.910;2023-03-17T03:39:08;8.35;;;4.50;;
30307;SDS011;17114;52.314;8.910;2023-03-17T03:41:39;7.50;;;4.40;;
30307;SDS011;17114;52.314;8.910;2023-03-17T03:44:06;8.68;;;4.90;;
30307;SDS011;17114;52.314;8.910;2023-03-17T03:46:33;6.38;;;4.35;;
30307;SDS011;17114;52.314;8.910;2023-03-17T03:49:00;8.82;;;4.60;;
30307;SDS011;17114;52.314;8.910;2023-03-17T03:51:27;6.32;;;3.80;;
30307;SDS011;17114;52.314;8.910;2023-03-17T03:53:54;8.43;;;4.20;;
30307;SDS011;17114;52.314;8.910;2023-03-17T03:56:21;11.25;;;4.80;;
30307;SDS011;17114;52.314;8.910;2023-03-17T03:58:49;6.88;;;4.13;;
30307;SDS011;17114;52.314;8.910;2023-03-17T04:01:16;6.40;;;4.50;;
30307;SDS011;17114;52.314;8.910;2023-03-17T04:03:43;8.38;;;4.32;;
30307;SDS011;17114;52.314;8.910;2023-03-17T04:06:12;6.97;;;4.22;;
30307;SDS011;17114;52.314;8.910;2023-03-17T04:08:40;7.18;;;4.25;;
30307;SDS011;17114;52.314;8.910;2023-03-17T04:11:07;9.43;;;4.38;;
30307;SDS011;17114;52.314;8.910;2023-03-17T04:13:34;9.38;;;4.65;;
30307;SDS011;17114;52.314;8.910;2023-03-17T04:16:01;7.43;;;4.35;;
30307;SDS011;17114;52.314;8.910;2023-03-17T04:18:28;6.75;;;4.45;;
30307;SDS011;17114;52.314;8.910;2023-03-17T04:20:56;9.60;;;5.22;;
30307;SDS011;17114;52.314;8.910;2023-03-17T04:23:23;9.07;;;4.30;;
30307;SDS011;17114;52.314;8.910;2023-03-17T04:25:51;8.57;;;5.18;;
30307;SDS011;17114;52.314;8.910;2023-03-17T04:28:19;7.10;;;4.40;;
30307;SDS011;17114;52.314;8.910;2023-03-17T04:30:47;10.73;;;5.22;;
30307;SDS011;17114;52.314;8.910;2023-03-17T04:33:14;9.63;;;4.72;;
30307;SDS011;17114;52.314;8.910;2023-03-17T04:35:42;8.40;;;4.57;;
30307;SDS011;17114;52.314;8.910;2023-03-17T04:38:10;10.57;;;4.90;;
30307;SDS011;17114;52.314;8.910;2023-03-17T04:40:38;7.60;;;5.00;;
30307;SDS011;17114;52.314;8.910;2023-03-17T04:43:06;8.68;;;4.50;;
30307;SDS011;17114;52.314;8.910;2023-03-17T04:45:33;7.38;;;4.07;;
30307;SDS011;17114;52.314;8.910;2023-03-17T04:48:00;8.10;;;4.47;;
30307;SDS011;17114;52.314;8.910;2023-03-17T04:50:27;6.68;;;4.30;;
30307;SDS011;17114;52.314;8.910;2023-03-17T04:52:54;8.13;;;4.93;;
30307;SDS011;17114;52.314;8.910;2023-03-17T04:55:21;8.40;;;4.85;;
30307;SDS011;17114;52.314;8.910;2023-03-17T04:57:48;6.72;;;4.32;;
30307;SDS011;17114;52.314;8.910;2023-03-17T05:00:15;8.80;;;5.05;;
30307;SDS011;17114;52.314;8.910;2023-03-17T05:02:43;8.00;;;4.20;;
30307;SDS011;17114;52.314;8.910;2023-03-17T05:05:10;8.13;;;4.88;;
30307;SDS011;17114;52.314;8.910;2023-03-17T05:07:38;10.88;;;4.53;;
30307;SDS011;17114;52.314;8.910;2023-03-17T05:10:05;9.00;;;4.85;;
30307;SDS011;17114;52.314;8.910;2023-03-17T05:12:33;7.90;;;4.75;;
30307;SDS011;17114;52.314;8.910;2023-03-17T05:15:00;9.32;;;5.03;;
30307;SDS011;17114;52.314;8.910;2023-03-17T05:17:27;8.02;;;4.55;;
30307;SDS011;17114;52.314;8.910;2023-03-17T05:19:54;11.90;;;5.18;;
30307;SDS011;17114;52.314;8.910;2023-03-17T05:22:21;8.43;;;4.20;;
30307;SDS011;17114;52.314;8.910;2023-03-17T05:24:48;7.55;;;4.68;;
30307;SDS011;17114;52.314;8.910;2023-03-17T05:27:15;7.30;;;4.50;;
30307;SDS011;17114;52.314;8.910;2023-03-17T05:29:42;6.53;;;4.22;;
30307;SDS011;17114;52.314;8.910;2023-03-17T05:32:09;7.32;;;4.65;;
30307;SDS011;17114;52.314;8.910;2023-03-17T05:34:37;8.90;;;4.45;;
30307;SDS011;17114;52.314;8.910;2023-03-17T05:37:04;6.90;;;4.32;;
30307;SDS011;17114;52.314;8.910;2023-03-17T05:39:31;8.55;;;4.55;;
30307;SDS011;17114;52.314;8.910;2023-03-17T05:41:58;6.70;;;4.30;;
30307;SDS011;17114;52.314;8.910;2023-03-17T05:44:25;8.55;;;4.38;;
30307;SDS011;17114;52.314;8.910;2023-03-17T05:46:52;8.05;;;5.00;;
30307;SDS011;17114;52.314;8.910;2023-03-17T05:49:21;10.13;;;5.05;;
30307;SDS011;17114;52.314;8.910;2023-03-17T05:51:48;9.15;;;5.53;;
30307;SDS011;17114;52.314;8.910;2023-03-17T05:54:15;8.38;;;4.32;;
30307;SDS011;17114;52.314;8.910;2023-03-17T05:56:42;9.02;;;4.90;;
30307;SDS011;17114;52.314;8.910;2023-03-17T05:59:09;9.32;;;5.53;;
30307;SDS011;17114;52.314;8.910;2023-03-17T06:01:40;7.43;;;4.65;;
30307;SDS011;17114;52.314;8.910;2023-03-17T06:04:07;9.15;;;4.70;;
30307;SDS011;17114;52.314;8.910;2023-03-17T06:06:34;10.80;;;5.20;;
30307;SDS011;17114;52.314;8.910;2023-03-17T06:09:01;9.60;;;4.78;;
30307;SDS011;17114;52.314;8.910;2023-03-17T06:11:28;7.95;;;4.68;;
30307;SDS011;17114;52.314;8.910;2023-03-17T06:13:56;10.65;;;4.68;;
30307;SDS011;17114;52.314;8.910;2023-03-17T06:16:23;7.40;;;4.85;;
30307;SDS011;17114;52.314;8.910;2023-03-17T06:18:50;12.88;;;5.82;;
30307;SDS011;17114;52.314;8.910;2023-03-17T06:21:17;8.30;;;4.72;;
30307;SDS011;17114;52.314;8.910;2023-03-17T06:23:44;9.55;;;4.88;;
30307;SDS011;17114;52.314;8.910;2023-03-17T06:26:11;10.43;;;5.15;;
30307;SDS011;17114;52.314;8.910;2023-03-17T06:28:38;8.57;;;5.05;;
30307;SDS011;17114;52.314;8.910;2023-03-17T06:31:06;8.73;;;4.57;;
30307;SDS011;17114;52.314;8.910;2023-03-17T06:33:34;7.53;;;4.10;;
30307;SDS011;17114;52.314;8.910;2023-03-17T06:36:01;9.95;;;4.78;;
30307;SDS011;17114;52.314;8.910;2023-03-17T06:38:28;6.93;;;4.60;;
30307;SDS011;17114;52.314;8.910;2023-03-17T06:40:55;13.43;;;5.10;;
30307;SDS011;17114;52.314;8.910;2023-03-17T06:43:23;6.53;;;4.60;;
30307;SDS011;17114;52.314;8.910;2023-03-17T06:45:50;7.45;;;4.45;;
30307;SDS011;17114;52.314;8.910;2023-03-17T06:48:18;7.30;;;3.72;;
30307;SDS011;17114;52.314;8.910;2023-03-17T06:50:45;6.88;;;4.18;;
30307;SDS011;17114;52.314;8.910;2023-03-17T06:53:15;7.88;;;4.22;;
30307;SDS011;17114;52.314;8.910;2023-03-17T06:55:42;6.03;;;4.07;;
30307;SDS011;17114;52.314;8.910;2023-03-17T06:58:10;9.55;;;4.70;;
30307;SDS011;17114;52.314;8.910;2023-03-17T07:00:38;6.65;;;3.88;;
30307;SDS011;17114;52.314;8.910;2023-03-17T07:03:05;7.75;;;4.68;;
30307;SDS011;17114;52.314;8.910;2023-03-17T07:05:32;8.02;;;4.20;;
30307;SDS011;17114;52.314;8.910;2023-03-17T07:07:59;7.55;;;4.47;;
30307;SDS011;17114;52.314;8.910;2023-03-17T07:10:26;7.72;;;4.40;;
30307;SDS011;17114;52.314;8.910;2023-03-17T07:12:53;8.05;;;4.55;;
30307;SDS011;17114;52.314;8.910;2023-03-17T07:15:21;5.80;;;3.70;;
30307;SDS011;17114;52.314;8.910;2023-03-17T07:17:48;6.57;;;3.92;;
30307;SDS011;17114;52.314;8.910;2023-03-17T07:20:15;8.48;;;4.88;;
30307;SDS011;17114;52.314;8.910;2023-03-17T07:22:42;5.53;;;3.72;;
30307;SDS011;17114;52.314;8.910;2023-03-17T07:25:09;8.70;;;4.30;;
30307;SDS011;17114;52.314;8.910;2023-03-17T07:27:36;6.60;;;4.03;;
30307;SDS011;17114;52.314;8.910;2023-03-17T07:30:04;9.27;;;4.35;;
30307;SDS011;17114;52.314;8.910;2023-03-17T07:32:32;7.15;;;3.95;;
30307;SDS011;17114;52.314;8.910;2023-03-17T07:35:00;8.00;;;4.05;;
30307;SDS011;17114;52.314;8.910;2023-03-17T07:37:27;9.43;;;4.78;;
30307;SDS011;17114;52.314;8.910;2023-03-17T07:39:54;6.60;;;4.47;;
30307;SDS011;17114;52.314;8.910;2023-03-17T07:42:22;6.93;;;4.40;;
30307;SDS011;17114;52.314;8.910;2023-03-17T07:44:49;7.78;;;4.07;;
30307;SDS011;17114;52.314;8.910;2023-03-17T07:47:16;6.38;;;4.13;;
30307;SDS011;17114;52.314;8.910;2023-03-17T07:49:43;9.18;;;4.30;;
30307;SDS011;17114;52.314;8.910;2023-03-17T07:52:11;7.13;;;4.40;;
30307;SDS011;17114;52.314;8.910;2023-03-17T07:54:38;6.97;;;4.20;;
30307;SDS011;17114;52.314;8.910;2023-03-17T07:57:08;9.02;;;4.57;;
30307;SDS011;17114;52.314;8.910;2023-03-17T07:59:35;7.65;;;4.25;;
30307;SDS011;17114;52.314;8.910;2023-03-17T08:02:03;6.57;;;4.05;;
30307;SDS011;17114;52.314;8.910;2023-03-17T08:04:30;6.20;;;3.40;;
30307;SDS011;17114;52.314;8.910;2023-03-17T08:06:58;6.55;;;4.10;;
30307;SDS011;17114;52.314;8.910;2023-03-17T08:09:26;9.20;;;4.32;;
30307;SDS011;17114;52.314;8.910;2023-03-17T08:11:53;6.53;;;4.07;;
30307;SDS011;17114;52.314;8.910;2023-03-17T08:14:21;12.35;;;5.63;;
30307;SDS011;17114;52.314;8.910;2023-03-17T08:16:48;9.23;;;4.43;;
30307;SDS011;17114;52.314;8.910;2023-03-17T08:19:16;8.57;;;4.30;;
30307;SDS011;17114;52.314;8.910;2023-03-17T08:21:43;5.03;;;3.58;;
30307;SDS011;17114;52.314;8.910;2023-03-17T08:24:10;5.65;;;3.65;;
30307;SDS011;17114;52.314;8.910;2023-03-17T08:26:37;9.27;;;3.97;;
30307;SDS011;17114;52.314;8.910;2023-03-17T08:29:04;6.50;;;3.75;;
30307;SDS011;17114;52.314;8.910;2023-03-17T08:31:33;6.18;;;3.72;;
30307;SDS011;17114;52.314;8.910;2023-03-17T08:34:01;6.38;;;3.17;;
30307;SDS011;17114;52.314;8.910;2023-03-17T08:36:28;4.25;;;2.78;;
30307;SDS011;17114;52.314;8.910;2023-03-17T08:38:55;6.45;;;3.40;;
30307;SDS011;17114;52.314;8.910;2023-03-17T08:41:23;6.05;;;3.40;;
30307;SDS011;17114;52.314;8.910;2023-03-17T08:43:52;5.90;;;3.22;;
30307;SDS011;17114;52.314;8.910;2023-03-17T08:46:24;7.32;;;3.85;;
30307;SDS011;17114;52.314;8.910;2023-03-17T08:48:56;4.80;;;3.10;;
30307;SDS011;17114;52.314;8.910;2023-03-17T08:51:25;6.72;;;3.45;;
30307;SDS011;17114;52.314;8.910;2023-03-17T08:53:54;6.30;;;3.50;;
30307;SDS011;17114;52.314;8.910;2023-03-17T08:56:22;4.80;;;3.28;;
30307;SDS011;17114;52.314;8.910;2023-03-17T08:58:49;4.20;;;3.28;;
30307;SDS011;17114;52.314;8.910;2023-03-17T09:01:17;5.28;;;3.60;;
30307;SDS011;17114;52.314;8.910;2023-03-17T09:03:46;5.10;;;3.20;;
30307;SDS011;17114;52.314;8.910;2023-03-17T09:06:14;5.00;;;3.15;;
30307;SDS011;17114;52.314;8.910;2023-03-17T09:08:42;4.53;;;3.10;;
30307;SDS011;17114;52.314;8.910;2023-03-17T09:11:14;5.00;;;3.28;;
30307;SDS011;17114;52.314;8.910;2023-03-17T09:13:43;6.25;;;3.30;;
30307;SDS011;17114;52.314;8.910;2023-03-17T09:16:15;5.07;;;3.13;;
30307;SDS011;17114;52.314;8.910;2023-03-17T09:18:43;4.68;;;3.10;;
30307;SDS011;17114;52.314;8.910;2023-03-17T09:21:12;6.55;;;3.17;;
30307;SDS011;17114;52.314;8.910;2023-03-17T09:23:40;4.95;;;3.17;;
30307;SDS011;17114;52.314;8.910;2023-03-17T09:26:07;4.75;;;3.10;;
30307;SDS011;17114;52.314;8.910;2023-03-17T09:28:35;7.40;;;3.88;;
30307;SDS011;17114;52.314;8.910;2023-03-17T09:31:03;6.50;;;3.40;;
30307;SDS011;17114;52.314;8.910;2023-03-17T09:33:37;4.68;;;3.40;;
30307;SDS011;17114;52.314;8.910;2023-03-17T09:36:06;6.25;;;3.70;;
30307;SDS011;17114;52.314;8.910;2023-03-17T09:38:34;6.13;;;3.90;;
30307;SDS011;17114;52.314;8.910;2023-03-17T09:49:16;8.10;;;3.70;;
30307;SDS011;17114;52.314;8.910;2023-03-17T09:51:46;6.78;;;3.28;;
30307;SDS011;17114;52.314;8.910;2023-03-17T09:54:33;5.05;;;2.90;;
30307;SDS011;17114;52.314;8.910;2023-03-17T09:57:21;4.38;;;3.15;;
30307;SDS011;17114;52.314;8.910;2023-03-17T10:00:16;5.35;;;3.50;;
30307;SDS011;17114;52.314;8.910;2023-03-17T10:02:44;5.80;;;3.30;;
30307;SDS011;17114;52.314;8.910;2023-03-17T10:15:51;6.03;;;3.03;;
30307;SDS011;17114;52.314;8.910;2023-03-17T10:18:31;4.35;;;3.13;;
30307;SDS011;17114;52.314;8.910;2023-03-17T10:21:05;4.78;;;2.80;;
30307;SDS011;17114;52.314;8.910;2023-03-17T10:23:36;6.50;;;3.70;;
30307;SDS011;17114;52.314;8.910;2023-03-17T10:26:07;4.90;;;3.00;;
30307;SDS011;17114;52.314;8.910;2023-03-17T10:28:50;5.85;;;3.20;;
30307;SDS011;17114;52.314;8.910;2023-03-17T10:31:31;5.68;;;3.25;;
30307;SDS011;17114;52.314;8.910;2023-03-17T10:34:06;5.38;;;3.38;;
30307;SDS011;17114;52.314;8.910;2023-03-17T10:36:50;7.10;;;3.35;;
30307;SDS011;17114;52.314;8.910;2023-03-17T10:39:22;4.97;;;3.22;;
30307;SDS011;17114;52.314;8.910;2023-03-17T10:41:57;5.78;;;3.03;;
30307;SDS011;17114;52.314;8.910;2023-03-17T10:44:32;7.10;;;3.67;;
30307;SDS011;17114;52.314;8.910;2023-03-17T10:47:05;4.80;;;3.10;;
30307;SDS011;17114;52.314;8.910;2023-03-17T10:49:45;4.50;;;3.40;;
30307;SDS011;17114;52.314;8.910;2023-03-17T10:52:17;5.38;;;3.63;;
30307;SDS011;17114;52.314;8.910;2023-03-17T10:54:48;8.15;;;3.58;;
30307;SDS011;17114;52.314;8.910;2023-03-17T10:57:18;6.65;;;3.65;;
30307;SDS011;17114;52.314;8.910;2023-03-17T10:59:47;6.95;;;3.55;;
30307;SDS011;17114;52.314;8.910;2023-03-17T11:02:25;8.82;;;3.72;;
30307;SDS011;17114;52.314;8.910;2023-03-17T11:05:16;5.22;;;3.33;;
30307;SDS011;17114;52.314;8.910;2023-03-17T11:07:49;5.72;;;3.30;;
30307;SDS011;17114;52.314;8.910;2023-03-17T11:10:23;6.63;;;3.25;;
30307;SDS011;17114;52.314;8.910;2023-03-17T11:12:58;6.78;;;3.50;;
30307;SDS011;17114;52.314;8.910;2023-03-17T11:15:31;7.57;;;3.13;;
30307;SDS011;17114;52.314;8.910;2023-03-17T11:18:03;5.15;;;3.28;;
30307;SDS011;17114;52.314;8.910;2023-03-17T11:29:00;8.63;;;3.15;;
30307;SDS011;17114;52.314;8.910;2023-03-17T11:31:31;4.55;;;3.10;;
30307;SDS011;17114;52.314;8.910;2023-03-17T11:34:08;4.53;;;3.63;;
30307;SDS011;17114;52.314;8.910;2023-03-17T11:36:50;5.38;;;3.30;;
30307;SDS011;17114;52.314;8.910;2023-03-17T11:39:25;5.78;;;3.55;;
30307;SDS011;17114;52.314;8.910;2023-03-17T11:50:00;5.20;;;3.50;;
30307;SDS011;17114;52.314;8.910;2023-03-17T11:52:51;5.18;;;2.85;;
30307;SDS011;17114;52.314;8.910;2023-03-17T11:58:27;7.10;;;3.50;;
30307;SDS011;17114;52.314;8.910;2023-03-17T12:01:12;6.38;;;3.20;;
30307;SDS011;17114;52.314;8.910;2023-03-17T12:03:50;5.57;;;3.03;;
30307;SDS011;17114;52.314;8.910;2023-03-17T12:06:35;7.72;;;3.40;;
30307;SDS011;17114;52.314;8.910;2023-03-17T12:11:41;6.72;;;3.38;;
30307;SDS011;17114;52.314;8.910;2023-03-17T12:14:24;5.65;;;3.58;;
30307;SDS011;17114;52.314;8.910;2023-03-17T12:17:07;5.70;;;3.25;;
30307;SDS011;17114;52.314;8.910;2023-03-17T12:22:25;7.82;;;3.30;;
30307;SDS011;17114;52.314;8.910;2023-03-17T12:25:02;5.97;;;2.88;;
30307;SDS011;17114;52.314;8.910;2023-03-17T12:27:41;5.85;;;3.15;;
30307;SDS011;17114;52.314;8.910;2023-03-17T12:33:19;4.00;;;2.80;;
30307;SDS011;17114;52.314;8.910;2023-03-17T12:35:53;5.43;;;3.20;;
30307;SDS011;17114;52.314;8.910;2023-03-17T12:38:29;3.97;;;2.83;;
30307;SDS011;17114;52.314;8.910;2023-03-17T12:44:11;5.90;;;2.95;;
30307;SDS011;17114;52.314;8.910;2023-03-17T12:55:21;5.07;;;2.72;;
30307;SDS011;17114;52.314;8.910;2023-03-17T12:58:04;6.63;;;2.70;;
30307;SDS011;17114;52.314;8.910;2023-03-17T13:00:54;4.35;;;2.63;;
30307;SDS011;17114;52.314;8.910;2023-03-17T13:03:32;5.15;;;2.90;;
30307;SDS011;17114;52.314;8.910;2023-03-17T13:06:04;4.53;;;3.08;;
30307;SDS011;17114;52.314;8.910;2023-03-17T13:08:35;8.23;;;3.20;;
30307;SDS011;17114;52.314;8.910;2023-03-17T13:19:55;5.70;;;2.90;;
30307;SDS011;17114;52.314;8.910;2023-03-17T13:25:47;7.30;;;3.13;;
30307;SDS011;17114;52.314;8.910;2023-03-17T13:38:36;6.20;;;3.40;;
30307;SDS011;17114;52.314;8.910;2023-03-17T13:47:24;6.63;;;2.72;;
30307;SDS011;17114;52.314;8.910;2023-03-17T13:50:03;6.03;;;3.42;;
30307;SDS011;17114;52.314;8.910;2023-03-17T13:58:31;5.38;;;2.72;;
30307;SDS011;17114;52.314;8.910;2023-03-17T14:00:43;8.50;;;3.45;;
30307;SDS011;17114;52.314;8.910;2023-03-17T14:06:04;7.32;;;2.90;;
30307;SDS011;17114;52.314;8.910;2023-03-17T14:08:37;3.92;;;2.53;;
30307;SDS011;17114;52.314;8.910;2023-03-17T14:17:15;7.28;;;3.05;;
30307;SDS011;17114;52.314;8.910;2023-03-17T14:20:01;4.72;;;3.00;;
30307;SDS011;17114;52.314;8.910;2023-03-17T14:22:44;7.70;;;3.13;;
30307;SDS011;17114;52.314;8.910;2023-03-17T14:25:17;5.95;;;2.70;;
30307;SDS011;17114;52.314;8.910;2023-03-17T14:27:52;5.55;;;3.25;;
30307;SDS011;17114;52.314;8.910;2023-03-17T14:30:23;4.38;;;2.63;;
30307;SDS011;17114;52.314;8.910;2023-03-17T14:33:08;5.60;;;3.05;;
30307;SDS011;17114;52.314;8.910;2023-03-17T14:35:48;3.67;;;2.60;;
30307;SDS011;17114;52.314;8.910;2023-03-17T14:38:22;8.02;;;2.83;;
30307;SDS011;17114;52.314;8.910;2023-03-17T14:40:50;5.15;;;2.70;;
30307;SDS011;17114;52.314;8.910;2023-03-17T14:43:30;4.82;;;2.60;;
30307;SDS011;17114;52.314;8.910;2023-03-17T14:45:59;5.65;;;2.63;;
30307;SDS011;17114;52.314;8.910;2023-03-17T14:48:31;3.63;;;2.30;;
30307;SDS011;17114;52.314;8.910;2023-03-17T14:51:02;5.65;;;2.45;;
30307;SDS011;17114;52.314;8.910;2023-03-17T14:53:34;7.68;;;2.80;;
30307;SDS011;17114;52.314;8.910;2023-03-17T14:56:05;5.85;;;2.72;;
30307;SDS011;17114;52.314;8.910;2023-03-17T14:58:38;8.00;;;2.40;;
30307;SDS011;17114;52.314;8.910;2023-03-17T15:01:11;4.43;;;2.67;;
30307;SDS011;17114;52.314;8.910;2023-03-17T15:03:58;4.63;;;2.72;;
30307;SDS011;17114;52.314;8.910;2023-03-17T15:06:31;5.47;;;2.47;;
30307;SDS011;17114;52.314;8.910;2023-03-17T15:09:03;4.35;;;2.42;;
30307;SDS011;17114;52.314;8.910;2023-03-17T15:11:42;5.25;;;2.35;;
30307;SDS011;17114;52.314;8.910;2023-03-17T15:14:15;3.40;;;2.08;;
30307;SDS011;17114;52.314;8.910;2023-03-17T15:16:47;4.38;;;2.50;;
30307;SDS011;17114;52.314;8.910;2023-03-17T15:21:46;4.35;;;2.40;;
30307;SDS011;17114;52.314;8.910;2023-03-17T15:26:48;4.88;;;2.58;;
30307;SDS011;17114;52.314;8.910;2023-03-17T15:29:15;4.38;;;2.42;;
30307;SDS011;17114;52.314;8.910;2023-03-17T15:31:42;3.80;;;2.38;;
30307;SDS011;17114;52.314;8.910;2023-03-17T15:34:11;4.72;;;2.17;;
30307;SDS011;17114;52.314;8.910;2023-03-17T15:36:40;4.97;;;2.63;;
30307;SDS011;17114;52.314;8.910;2023-03-17T15:39:09;5.50;;;2.65;;
30307;SDS011;17114;52.314;8.910;2023-03-17T15:41:36;6.43;;;2.97;;
30307;SDS011;17114;52.314;8.910;2023-03-17T15:44:03;4.68;;;2.40;;
30307;SDS011;17114;52.314;8.910;2023-03-17T15:46:30;5.97;;;2.58;;
30307;SDS011;17114;52.314;8.910;2023-03-17T15:48:59;8.23;;;2.85;;
30307;SDS011;17114;52.314;8.910;2023-03-17T15:51:26;6.53;;;3.10;;
30307;SDS011;17114;52.314;8.910;2023-03-17T15:53:53;3.58;;;2.50;;
30307;SDS011;17114;52.314;8.910;2023-03-17T15:56:20;4.13;;;2.58;;
30307;SDS011;17114;52.314;8.910;2023-03-17T15:58:48;5.45;;;2.67;;
30307;SDS011;17114;52.314;8.910;2023-03-17T16:01:17;6.15;;;2.53;;
30307;SDS011;17114;52.314;8.910;2023-03-17T16:03:46;5.60;;;2.88;;
30307;SDS011;17114;52.314;8.910;2023-03-17T16:06:15;4.65;;;2.58;;
30307;SDS011;17114;52.314;8.910;2023-03-17T16:08:44;7.85;;;3.33;;
30307;SDS011;17114;52.314;8.910;2023-03-17T16:11:12;7.40;;;3.78;;
30307;SDS011;17114;52.314;8.910;2023-03-17T16:13:45;4.75;;;3.00;;
30307;SDS011;17114;52.314;8.910;2023-03-17T16:16:20;6.93;;;3.40;;
30307;SDS011;17114;52.314;8.910;2023-03-17T16:18:51;8.27;;;3.17;;
30307;SDS011;17114;52.314;8.910;2023-03-17T16:21:19;6.38;;;3.22;;
30307;SDS011;17114;52.314;8.910;2023-03-17T16:23:46;7.78;;;3.25;;
30307;SDS011;17114;52.314;8.910;2023-03-17T16:26:14;7.45;;;3.03;;
30307;SDS011;17114;52.314;8.910;2023-03-17T16:28:43;7.28;;;3.17;;
30307;SDS011;17114;52.314;8.910;2023-03-17T16:31:18;6.63;;;3.88;;
30307;SDS011;17114;52.314;8.910;2023-03-17T16:33:52;12.00;;;5.32;;
30307;SDS011;17114;52.314;8.910;2023-03-17T16:36:20;11.02;;;5.22;;
30307;SDS011;17114;52.314;8.910;2023-03-17T16:38:48;15.50;;;5.72;;
30307;SDS011;17114;52.314;8.910;2023-03-17T16:41:17;12.35;;;5.35;;
30307;SDS011;17114;52.314;8.910;2023-03-17T16:43:51;10.02;;;4.45;;
30307;SDS011;17114;52.314;8.910;2023-03-17T16:46:22;8.75;;;4.75;;
30307;SDS011;17114;52.314;8.910;2023-03-17T16:48:52;13.13;;;4.45;;
30307;SDS011;17114;52.314;8.910;2023-03-17T16:51:21;9.45;;;5.10;;
30307;SDS011;17114;52.314;8.910;2023-03-17T16:53:50;8.98;;;5.20;;
30307;SDS011;17114;52.314;8.910;2023-03-17T16:56:18;15.73;;;6.57;;
30307;SDS011;17114;52.314;8.910;2023-03-17T16:58:47;9.88;;;5.00;;
30307;SDS011;17114;52.314;8.910;2023-03-17T17:01:24;7.38;;;4.47;;
30307;SDS011;17114;52.314;8.910;2023-03-17T17:03:53;6.15;;;3.33;;